• Join FlightAware (Why Join?)
  • Login
  • US Flag 
04:45AM EDT


 

Airport Tracker/Info


-or-


 

Live Flight TrackerFlight Track Log ✈ UAL262 ✈ 16-Aug-2013 ✈ KSEA - KIAD

Flight Track Log - Related Links

Times and Time Zones

All times are in EDT time to prevent confusion due to time zone crossing. See the UAL262 flight status page for this flight to view local times or setup timezone preferences in your user account.

Time Position Orientation Groundspeed Altitude Reporting Facility
EDT Latitude Longitude Course Direction KTS MPH feet Rate Location/Type
02:03AM 47.4286 -122.3108 90° East 166 191 1,300  Level Seattle Center
02:03AM 47.4028 -122.3092 177° South 173 199 1,900 1,620 Climbing Seattle Center
02:04AM 47.3394 -122.3072 179° South 228 262 3,900 2,280 Climbing Seattle Center
02:05AM 47.3133 -122.2106 112° Southeast 280 322 6,500 2,940 Climbing Seattle Center
02:06AM 47.5500 -121.5854 90° East  Level FlightAware Approximate
02:06AM 47.3628 -122.1119 53° Northeast 303 349 9,900  Level Seattle Center
02:07AM 47.5501 -121.3984 90° East  Level FlightAware Approximate
02:07AM 47.4222 -122.0025 51° Northeast 361 415 11,700  Level Seattle Center
02:08AM 47.5500 -121.2114 90° East  Level FlightAware Approximate
02:08AM 47.4947 -121.8669 52° Northeast 426 490 13,700  Level Seattle Center
02:09AM 47.5622 -121.6964 60° Northeast 460 529 16,700 2,460 Climbing Seattle Center
02:10AM 47.5583 -121.5342 92° East 465 535 18,700 2,220 Climbing Seattle Center
02:11AM 47.5567 -121.3375 91° East 482 555 21,200 2,460 Climbing Seattle Center
02:12AM 47.5528 -121.1381 92° East 489 563 23,700 2,400 Climbing Seattle Center
02:13AM 47.5486 -120.8900 91° East 505 581 26,100 1,620 Climbing Seattle Center
02:14AM 47.5456 -120.7128 91° East 503 579 27,000 840 Climbing Seattle Center
02:15AM 47.5603 -120.5058 84° East 506 582 27,800 600 Climbing Seattle Center
02:17AM 47.5842 -120.1311 84° East 509 586 28,700 1,380 Climbing Salt Lake Center
02:18AM 47.5650 -119.9322 98° East 492 566 31,700 1,980 Climbing Salt Lake Center
02:19AM 47.5503 -119.7461 97° East 469 540 32,800 600 Climbing Salt Lake Center
02:20AM 47.5481 -119.5592 91° East 461 531 33,000 60 Climbing Salt Lake Center
02:21AM 47.5633 -119.3592 83° East 485 558 33,000  Level Salt Lake Center
02:22AM 47.5761 -119.1533 85° East 500 575 33,000  Level Salt Lake Center
02:23AM 47.5925 -118.8992 84° East 519 597 33,000  Level Seattle Center
02:24AM 47.6067 -118.6444 85° East 518 596 33,000  Level Seattle Center
02:25AM 47.6186 -118.4317 85° East 518 596 33,000  Level Seattle Center
02:26AM 47.6300 -118.2206 85° East 517 595 33,000 -60 Level Seattle Center
02:27AM 47.6417 -118.0094 85° East 515 593 32,900  Descending Seattle Center
02:28AM 47.6522 -117.7981 86° East 516 594 33,000  Climbing Seattle Center
02:29AM 47.6631 -117.5847 86° East 518 596 32,900  Descending Seattle Center
02:30AM 47.6739 -117.3719 86° East 516 594 33,000  Climbing Seattle Center
02:31AM 47.6844 -117.1556 86° East 517 595 33,000  Level Seattle Center
02:32AM 47.6933 -116.9758 86° East 524 603 33,000  Level Seattle Center
02:33AM 47.7000 -116.7597 87° East 520 598 33,000  Level Seattle Center
02:34AM 47.7081 -116.5464 87° East 517 595 33,000  Level Seattle Center
02:35AM 47.7158 -116.3331 87° East 517 595 33,000 -60 Level Seattle Center
02:36AM 47.7231 -116.1219 87° East 513 590 32,900 -60 Descending Seattle Center
02:37AM 47.7308 -115.9097 87° East 514 592 32,900  Level Seattle Center
02:38AM 47.7392 -115.6617 87° East 518 596 33,000  Climbing Seattle Center
02:39AM 47.7469 -115.4475 87° East 521 600 32,900  Descending Seattle Center
02:40AM 47.7528 -115.2328 88° East 522 601 33,000  Climbing Seattle Center
02:41AM 47.7578 -115.0172 88° East 524 603 33,000  Level Seattle Center
02:42AM 47.7619 -114.8022 88° East 525 604 33,000  Level Seattle Center
02:43AM 47.7667 -114.5900 88° East 522 601 33,000 -60 Level Seattle Center
02:44AM 47.7703 -114.3789 88° East 521 600 32,900  Descending Seattle Center
02:45AM 47.7747 -114.1683 88° East 521 600 33,000 60 Climbing Salt Lake Center
02:45AM 47.7747 -114.1683 88° East 520 598 33,000 -120 Level Seattle Center
02:46AM 47.7792 -113.9583 88° East 517 595 32,900 -60 Descending Salt Lake Center
02:47AM 47.7828 -113.7467 88° East 517 595 32,900  Level Salt Lake Center
02:48AM 47.7858 -113.5342 89° East 518 596 33,000  Climbing Salt Lake Center
02:49AM 47.7878 -113.3214 89° East 519 597 33,000  Level Salt Lake Center
02:50AM 47.7903 -113.1089 89° East 517 595 33,000  Level Salt Lake Center
02:51AM 47.7917 -112.8972 89° East 516 594 33,000  Level Salt Lake Center
02:52AM 47.7925 -112.6856 90° East 514 592 33,000  Level Salt Lake Center
02:53AM 47.7931 -112.4847 90° East 509 586 33,000 60 Level Salt Lake Center
02:54AM 47.7939 -112.2778 90° East 503 579 33,200 360 Climbing Salt Lake Center
02:55AM 47.7936 -112.0714 90° East 502 578 33,800 600 Climbing Salt Lake Center
02:56AM 47.7939 -111.8631 90° East 503 579 34,500 540 Climbing Salt Lake Center
02:57AM 47.7933 -111.6569 90° East 500 575 35,000 240 Climbing Salt Lake Center
02:58AM 47.7936 -111.4492 90° East 498 573 35,000 -60 Level Salt Lake Center
02:59AM 47.7931 -111.2358 90° East 501 577 34,900  Descending Salt Lake Center
03:00AM 47.7897 -111.0214 91° East 509 586 35,000  Climbing Salt Lake Center
03:01AM 47.7875 -110.8100 91° East 508 585 35,000  Level Salt Lake Center
03:02AM 47.7853 -110.5978 91° East 512 589 35,000  Level Salt Lake Center
03:03AM 47.7828 -110.3889 91° East 509 586 35,000 -60 Level Salt Lake Center
03:04AM 47.7797 -110.1808 91° East 505 581 34,900  Descending Salt Lake Center
03:05AM 47.7772 -109.9714 91° East 507 583 35,000  Climbing Salt Lake Center
03:06AM 47.7711 -109.7653 92° East 503 579 35,000 -60 Level Salt Lake Center
03:07AM 47.7681 -109.5592 91° East 500 575 34,900 -60 Descending Salt Lake Center
03:08AM 47.7636 -109.3536 92° East 500 575 34,900  Level Salt Lake Center
03:09AM 47.7592 -109.1486 92° East 499 574 34,900  Level Salt Lake Center
03:10AM 47.7533 -108.9417 92° East 500 575 35,000  Climbing Salt Lake Center
03:11AM 47.7450 -108.6928 93° East 502 578 35,000 -60 Level Salt Lake Center
03:12AM 47.7392 -108.4864 92° East 503 579 34,900  Descending Salt Lake Center
03:13AM 47.7336 -108.2808 92° East 501 577 35,000  Climbing Salt Lake Center
03:14AM 47.7258 -108.0750 93° East 501 577 34,900  Descending Salt Lake Center
03:16AM 47.7189 -107.8667 93° East 503 579 35,000  Climbing Salt Lake Center
03:17AM 47.7106 -107.6597 93° East 504 580 35,000  Level Salt Lake Center
03:18AM 47.7033 -107.4514 93° East 506 582 35,000 -60 Level Salt Lake Center
03:19AM 47.6889 -107.2425 96° East 507 583 34,900  Descending Salt Lake Center
03:20AM 47.6797 -107.0344 94° East 507 583 35,000  Climbing Salt Lake Center
03:21AM 47.6697 -106.8272 94° East 507 583 35,000  Level Salt Lake Center
03:22AM 47.6611 -106.6203 93° East 505 581 35,000 -60 Level Salt Lake Center
03:23AM 47.6514 -106.4147 94° East 504 580 34,900  Descending Salt Lake Center
03:24AM 47.6417 -106.2097 94° East 502 578 35,000  Climbing Salt Lake Center
03:25AM 47.6286 -105.9631 94° East 502 578 35,000  Level Salt Lake Center
03:26AM 47.6158 -105.7583 95° East 501 577 35,000  Level Salt Lake Center
03:27AM 47.6081 -105.5492 93° East 499 574 35,000 -60 Level Salt Lake Center
03:28AM 47.5958 -105.3525 95° East 496 571 34,900 -60 Descending Salt Lake Center
03:29AM 47.5836 -105.1531 95° East 491 565 34,900  Level Salt Lake Center
03:30AM 47.5692 -104.9497 96° East 494 568 35,000  Climbing Salt Lake Center
03:31AM 47.5567 -104.7469 95° East 496 571 34,900  Descending Salt Lake Center
03:32AM 47.5444 -104.5428 95° East 498 573 35,000  Climbing Salt Lake Center
03:33AM 47.5278 -104.2986 96° East 499 574 35,000  Level Salt Lake Center
03:34AM 47.5136 -104.0969 96° East 500 575 35,000  Level Salt Lake Center
03:35AM 47.4989 -103.8983 96° East 498 573 35,000 -60 Level Salt Lake Center
03:36AM 47.4839 -103.6992 96° East 498 573 34,900 -60 Descending Salt Lake Center
03:37AM 47.4703 -103.4994 96° East 499 574 34,900  Level Salt Lake Center
03:38AM 47.4564 -103.3003 96° East 496 571 35,000  Climbing Salt Lake Center
03:39AM 47.4408 -103.1000 96° East 494 568 35,000  Level Salt Lake Center
03:40AM 47.4258 -102.9011 96° East 493 567 35,000  Level Salt Lake Center
03:41AM 47.4106 -102.7031 96° East 491 565 35,000 -60 Level Salt Lake Center
03:42AM 47.3947 -102.5061 97° East 488 562 34,900 -60 Descending Salt Lake Center
03:43AM 47.3781 -102.3100 97° East 486 559 34,900  Level Salt Lake Center
03:44AM 47.3600 -102.1119 98° East 487 560 34,900  Level Salt Lake Center
03:45AM 47.3428 -101.9158 97° East 489 563 35,000  Climbing Minneapolis Center
03:46AM 47.3258 -101.7181 97° East 489 563 34,900 -60 Descending Minneapolis Center
03:47AM 47.3103 -101.5189 96° East 490 564 34,900  Level Minneapolis Center
03:48AM 47.2936 -101.3219 97° East 487 560 35,000  Climbing Minneapolis Center
03:49AM 47.2733 -101.1247 99° East 488 562 35,000  Level Minneapolis Center
03:50AM 47.2492 -100.9197 100° East 490 564 35,000 -60 Level Minneapolis Center
03:51AM 47.2292 -100.7225 98° East 491 565 34,900 -60 Descending Minneapolis Center
03:52AM 47.2106 -100.5269 98° East 487 560 34,900  Level Minneapolis Center
03:53AM 47.1886 -100.3314 99° East 487 560 34,900  Level Minneapolis Center
03:54AM 47.1683 -100.1353 99° East 487 560 35,000  Climbing Minneapolis Center
03:55AM 47.1478 -99.9397 99° East 487 560 35,000  Level Minneapolis Center
03:56AM 47.1269 -99.7458 99° East 485 558 35,000  Level Minneapolis Center
03:57AM 47.1047 -99.5514 99° East 485 558 35,000 -60 Level Minneapolis Center
03:58AM 47.0833 -99.3581 99° East 484 557 34,900  Descending Minneapolis Center
03:59AM 47.0611 -99.1642 99° East 484 557 35,000  Climbing Minneapolis Center
04:00AM 47.0383 -98.9717 100° East 484 557 35,000 -60 Level Minneapolis Center
04:01AM 47.0167 -98.7800 99° East 481 554 34,900  Descending Minneapolis Center
04:02AM 46.9933 -98.5872 100° East 483 556 35,000  Climbing Minneapolis Center
04:03AM 46.9700 -98.3961 100° East 482 555 35,000 -60 Level Minneapolis Center
04:04AM 46.9469 -98.2047 100° East 482 555 34,900  Descending Minneapolis Center
04:05AM 46.9231 -98.0136 100° East 482 555 35,000  Climbing Minneapolis Center
04:06AM 46.8994 -97.8233 100° East 481 554 35,000 -60 Level Minneapolis Center
04:07AM 46.8697 -97.5956 101° East 479 551 34,900 -60 Descending Minneapolis Center
04:08AM 46.8456 -97.4058 100° East 479 551 34,900  Level Minneapolis Center
04:09AM 46.8203 -97.2139 101° East 483 556 35,000  Climbing Minneapolis Center
04:10AM 46.7947 -97.0236 101° East 481 554 35,000 -60 Level Minneapolis Center
04:11AM 46.7692 -96.8344 101° East 479 551 34,900 -60 Descending Minneapolis Center
04:12AM 46.7425 -96.6464 102° East 478 550 34,900  Level Minneapolis Center
04:13AM 46.7167 -96.4561 101° East 480 552 35,000  Climbing Minneapolis Center
04:14AM 46.6897 -96.2672 102° East 479 551 35,000  Level Minneapolis Center
04:15AM 46.6622 -96.0775 102° East 480 552 35,000  Level Minneapolis Center
04:16AM 46.6350 -95.8886 102° East 480 552 35,000  Level Minneapolis Center
04:17AM 46.6075 -95.7008 102° East 478 550 35,000  Level Minneapolis Center
04:18AM 46.5800 -95.5122 102° East 478 550 35,000 -60 Level Minneapolis Center
04:19AM 46.5556 -95.3372 101° East 476 548 34,900  Descending Minneapolis Center
04:20AM 46.5272 -95.1486 102° East 479 551 35,000  Climbing Minneapolis Center
04:21AM 46.4981 -94.9625 103° East 477 549 35,000  Level Minneapolis Center
04:22AM 46.4686 -94.7758 103° East 476 548 35,000 -60 Level Minneapolis Center
04:23AM 46.4336 -94.5536 103° East 475 547 34,900  Descending Minneapolis Center
04:24AM 46.4042 -94.3683 103° East 476 548 35,000  Climbing Minneapolis Center
04:25AM 46.3733 -94.1814 103° East 477 549 35,000  Level Minneapolis Center
04:26AM 46.3406 -93.9958 104° East 478 550 35,000  Level Minneapolis Center
04:27AM 46.2914 -93.8203 112° Southeast 475 547 35,000 -60 Level Minneapolis Center
04:28AM 46.2428 -93.6442 112° Southeast 475 547 34,900  Descending Minneapolis Center
04:29AM 46.1933 -93.4656 112° Southeast 474 545 35,000  Climbing Minneapolis Center
04:30AM 46.1433 -93.2864 112° Southeast 478 550 35,000  Level Minneapolis Center
04:31AM 46.0908 -93.1069 113° Southeast 483 556 35,000  Level Minneapolis Center
04:32AM 46.0322 -92.9331 116° Southeast 485 558 35,000  Level Minneapolis Center
04:33AM 45.9744 -92.7603 116° Southeast 482 555 35,000  Level Minneapolis Center
04:34AM 45.9169 -92.5925 116° Southeast 475 547 35,000  Level Minneapolis Center
04:35AM 45.8569 -92.4183 116° Southeast 485 558 35,000  Level Minneapolis Center
04:36AM 45.7983 -92.2422 115° Southeast 490 564 35,000  Level Minneapolis Center
04:37AM 45.7378 -92.0681 116° Southeast 491 565 35,000  Level Minneapolis Center
04:38AM 45.6800 -91.8975 116° Southeast 484 557 35,000  Level Minneapolis Center
04:39AM 45.6225 -91.7272 116° Southeast 478 550 35,000  Level Minneapolis Center
04:40AM 45.5617 -91.5564 117° Southeast 480 552 35,000  Level Minneapolis Center
04:41AM 45.5003 -91.3842 117° Southeast 483 556 35,000  Level Minneapolis Center
04:42AM 45.4394 -91.2164 117° Southeast 482 555 35,000  Level Minneapolis Center
04:43AM 45.3808 -91.0500 117° Southeast 478 550 35,000  Level Minneapolis Center
04:44AM 45.3211 -90.8836 117° Southeast 476 548 35,000  Level Minneapolis Center
04:45AM 45.2619 -90.7169 117° Southeast 475 547 35,000  Level Minneapolis Center
04:46AM 45.2008 -90.5517 118° Southeast 475 547 35,000  Level Minneapolis Center
04:47AM 45.1419 -90.3869 117° Southeast 473 544 35,000  Level Minneapolis Center
04:48AM 45.0811 -90.2225 118° Southeast 473 544 35,000  Level Minneapolis Center
04:49AM 45.0211 -90.0592 117° Southeast 472 543 35,000  Level Minneapolis Center
04:50AM 44.9528 -89.9036 122° Southeast 469 540 35,000  Level Minneapolis Center
04:51AM 44.8647 -89.7233 125° Southeast 473 544 35,000  Level Minneapolis Center
04:52AM 44.7906 -89.5731 125° Southeast 468 539 35,000  Level Minneapolis Center
04:53AM 44.7161 -89.4225 125° Southeast 468 539 35,000  Level Minneapolis Center
04:54AM 44.6428 -89.2714 124° Southeast 468 539 35,000  Level Minneapolis Center
04:55AM 44.5689 -89.1217 125° Southeast 467 537 35,000  Level Minneapolis Center
04:56AM 44.4939 -88.9742 125° Southeast 463 533 35,000  Level Minneapolis Center
04:57AM 44.4206 -88.8264 125° Southeast 462 532 35,000  Level Minneapolis Center
04:58AM 44.3456 -88.6792 125° Southeast 463 533 35,000  Level Minneapolis Center
04:59AM 44.2722 -88.5314 125° Southeast 462 532 35,000  Level Minneapolis Center
05:00AM 44.1978 -88.3844 125° Southeast 463 533 35,000  Level Minneapolis Center
05:01AM 44.1222 -88.2378 126° Southeast 463 533 35,000  Level Minneapolis Center
05:02AM 44.0478 -88.0917 125° Southeast 463 533 35,000  Level Minneapolis Center
05:03AM 43.9758 -87.9453 124° Southeast 457 526 35,000  Level Minneapolis Center
05:04AM 43.9086 -87.7947 122° Southeast 456 525 35,000  Level Minneapolis Center
05:05AM 43.8417 -87.6472 122° Southeast 452 520 35,000  Level Minneapolis Center
05:06AM 43.7739 -87.4992 122° Southeast 452 520 35,000  Level Minneapolis Center
05:07AM 43.7069 -87.3514 122° Southeast 451 519 35,000  Level Minneapolis Center
05:08AM 43.6497 -87.2250 122° Southeast 457 526 35,000  Level Minneapolis Center
05:09AM 43.5811 -87.0775 123° Southeast 457 526 35,000  Level Minneapolis Center
05:10AM 43.5142 -86.9306 122° Southeast 457 526 35,000  Level Minneapolis Center
05:11AM 43.4444 -86.7825 123° Southeast 459 528 35,000  Level Minneapolis Center
05:12AM 43.3619 -86.6044 122° Southeast 461 531 35,000  Level Minneapolis Center
05:14AM 43.2792 -86.4294 123° Southeast 458 527 35,000  Level Minneapolis Center
05:15AM 43.2100 -86.2825 123° Southeast 458 527 35,000  Level Minneapolis Center
05:16AM 43.1256 -86.1036 123° Southeast 465 535 35,000  Level Chicago Center
05:17AM 43.0511 -85.9569 125° Southeast 464 534 35,000  Level Chicago Center
05:18AM 42.9836 -85.8272 125° Southeast 473 544 35,000  Level Chicago Center
05:19AM 42.9086 -85.6814 125° Southeast 473 544 35,000  Level Chicago Center
05:20AM 42.8342 -85.5389 125° Southeast 465 535 35,000  Level Chicago Center
05:21AM 42.7581 -85.3944 126° Southeast 469 540 35,000  Level Chicago Center
05:22AM 42.6828 -85.2503 125° Southeast 468 539 35,000  Level Chicago Center
05:23AM 42.5925 -85.0783 125° Southeast 468 539 35,000  Level Chicago Center
05:24AM 42.5158 -84.9342 126° Southeast 470 541 35,000  Level Chicago Center
05:25AM 42.4386 -84.7894 126° Southeast 474 545 35,000  Level Chicago Center
05:26AM 42.3603 -84.6475 127° Southeast 471 542 35,000  Level Chicago Center
05:27AM 42.2828 -84.5031 126° Southeast 474 545 35,000  Level Chicago Center
05:28AM 42.2044 -84.3597 126° Southeast 474 545 35,000  Level Chicago Center
05:29AM 42.1261 -84.2167 126° Southeast 475 547 35,000  Level Chicago Center
05:30AM 42.0483 -84.0747 126° Southeast 473 544 35,000  Level Chicago Center
05:31AM 41.9708 -83.9333 126° Southeast 472 543 35,000  Level Chicago Center
05:32AM 41.8919 -83.7958 128° Southeast 477 549 35,000  Level Chicago Center
05:33AM 41.8122 -83.6536 127° Southeast 477 549 35,000  Level Chicago Center
05:34AM 41.7186 -83.4958 128° Southeast 475 547 35,000  Level Cleveland Center
05:35AM 41.6389 -83.3533 127° Southeast 475 547 35,000  Level Cleveland Center
05:36AM 41.5667 -83.2225 126° Southeast 483 556 35,000  Level Cleveland Center
05:37AM 41.4886 -83.0808 126° Southeast 483 556 35,000  Level Cleveland Center
05:38AM 41.3983 -82.9222 127° Southeast 483 556 35,000  Level Cleveland Center
05:39AM 41.3175 -82.7867 128° Southeast 489 563 35,000  Level Cleveland Center
05:40AM 41.2347 -82.6403 127° Southeast 483 556 35,000  Level Cleveland Center
05:41AM 41.1517 -82.4969 128° Southeast 483 556 35,000  Level Cleveland Center
05:42AM 41.0706 -82.3594 128° Southeast 477 549 35,000  Level Cleveland Center
05:43AM 40.9894 -82.2169 127° Southeast 483 556 35,000  Level Cleveland Center
05:44AM 40.9058 -82.0775 128° Southeast 483 556 35,000  Level Cleveland Center
05:45AM 40.8219 -81.9358 128° Southeast 483 556 35,000  Level Cleveland Center
05:46AM 40.7403 -81.7972 128° Southeast 483 556 35,000  Level Cleveland Center
05:47AM 40.6583 -81.6561 127° Southeast 483 556 35,000  Level Cleveland Center
05:48AM 40.5742 -81.5153 128° Southeast 488 562 35,000  Level Cleveland Center
05:49AM 40.4958 -81.3775 127° Southeast 488 562 35,000  Level Cleveland Center
05:50AM 40.4281 -81.2267 121° Southeast 483 556 35,000  Level Cleveland Center
05:51AM 40.3664 -81.0681 117° Southeast 483 556 35,000  Level Cleveland Center
05:52AM 40.3064 -80.9069 116° Southeast 483 556 35,000  Level Cleveland Center
05:53AM 40.2442 -80.7436 116° Southeast 488 562 35,000  Level Cleveland Center
05:54AM 40.1819 -80.5858 117° Southeast 488 562 35,000 -300 Level Cleveland Center
05:55AM 40.1192 -80.4256 117° Southeast 488 562 34,400 -840 Descending Cleveland Center
05:56AM 40.0564 -80.2683 118° Southeast 488 562 33,400 -480 Descending Cleveland Center
05:58AM 39.9328 -79.9533 117° Southeast 487 560 33,000 -180 Descending Washington Center
05:59AM 39.8697 -79.7928 117° Southeast 493 567 33,000 -300 Level Washington Center
06:00AM 39.8083 -79.6353 117° Southeast 493 567 32,500 -720 Descending Washington Center
06:01AM 39.7447 -79.4778 118° Southeast 493 567 31,600 -1,800 Descending Washington Center
06:02AM 39.6808 -79.3233 118° Southeast 493 567 28,900 -2,820 Descending Washington Center
06:03AM 39.6169 -79.1636 117° Southeast 493 567 25,900 -3,180 Descending Washington Center
06:04AM 39.5450 -78.9906 118° Southeast 500 575 22,600 -3,120 Descending Washington Center
06:05AM 39.4825 -78.8369 118° Southeast 490 564 19,800 -2,700 Descending Washington Center
06:06AM 39.4236 -78.6972 119° Southeast 467 537 17,300 -2,460 Descending Washington Center
06:07AM 39.3686 -78.5633 118° Southeast 438 504 14,800 -2,460 Descending Washington Center
06:08AM 39.3175 -78.4381 118° Southeast 416 479 12,400 -1,980 Descending Washington Center
06:09AM 39.2639 -78.3233 121° Southeast 391 450 11,000 -840 Descending Washington Center
06:10AM 39.2033 -78.2378 132° Southeast 334 384 10,800 -900 Descending Washington Center
06:11AM 39.1314 -78.1897 153° Southeast 302 348 9,300 -1,260 Descending Washington Center
06:12AM 39.0617 -78.1392 151° Southeast 297 342 8,400 -960 Descending Washington Center
06:13AM 38.9981 -78.0808 145° Southeast 286 329 7,400 -720 Descending Washington Center
06:14AM 38.9389 -78.0203 141° Southeast 281 323 7,000 -300 Descending Washington Center
06:15AM 38.8797 -77.9597 141° Southeast 276 318 6,800 -600 Descending Washington Center
06:16AM 38.8203 -77.9017 143° Southeast 276 318 5,900 -900 Descending Washington Center
06:17AM 38.7631 -77.8414 141° Southeast 271 312 5,000 -540 Descending Washington Center
06:19AM 38.7500 -77.7000 97° East 264 304 4,500 -540 Descending Potomac TRACON
06:20AM 38.7833 -77.6167 63° Northeast 221 254 3,600 -960 Descending Potomac TRACON
06:21AM 38.8000 -77.5500 72° East 213 245 2,600 -780 Descending Potomac TRACON
06:22AM 38.8333 -77.4833 57° Northeast 197 227 2,200 -480 Descending Potomac TRACON
06:23AM 38.8667 -77.4667 21° North 149 171 1,700 -660 Descending Potomac TRACON
06:24AM 38.9167 -77.4667 360° North 138 159 900 -840 Descending Potomac TRACON